Time;durP1;ratioP1;P1;durP2;ratioP2;P2;SDS_P1;SDS_P2;PMS_P1;PMS_P2;Temp;Humidity;BMP_temperature;BMP_pressure;BME280_temperature;BME280_humidity;BME280_pressure;Samples;Min_cycle;Max_cycle;Signal;HPM_P1;HPM_P2
2021/10/13 00:00:15;;;;;;;22.53;8.80;;;;;;;;;;4988889;28;20227;-79
2021/10/13 00:02:43;;;;;;;19.33;8.43;;;;;;;;;;4989053;28;20315;-77
2021/10/13 00:05:10;;;;;;;17.47;8.00;;;;;;;;;;4989119;28;20329;-79
2021/10/13 00:07:38;;;;;;;19.07;8.40;;;;;;;;;;4990468;28;20651;-79
2021/10/13 00:10:06;;;;;;;21.77;8.50;;;;;;;;;;4989856;28;20252;-78
2021/10/13 00:12:34;;;;;;;20.07;9.40;;;;;;;;;;4987299;28;20208;-78
2021/10/13 00:15:01;;;;;;;21.80;9.03;;;;;;;;;;4986307;28;20216;-77
2021/10/13 00:17:30;;;;;;;16.37;8.23;;;;;;;;;;4990545;28;20292;-79
2021/10/13 00:19:58;;;;;;;17.20;8.10;;;;;;;;;;4982024;28;20225;-77
2021/10/13 00:22:25;;;;;;;24.00;9.13;;;;;;;;;;4980411;28;20201;-77
2021/10/13 00:24:52;;;;;;;20.93;8.30;;;;;;;;;;4976772;28;20248;-79
2021/10/13 00:27:31;;;;;;;21.70;9.17;;;;;;;;;;4981253;28;20232;-79
2021/10/13 00:29:58;;;;;;;18.00;7.70;;;;;;;;;;4985315;28;20663;-79
2021/10/13 00:32:28;;;;;;;17.30;7.87;;;;;;;;;;4991287;28;20240;-79
2021/10/13 00:34:57;;;;;;;16.33;7.63;;;;;;;;;;4992449;28;20205;-78
2021/10/13 00:37:24;;;;;;;16.33;8.10;;;;;;;;;;4993800;28;20204;-78
2021/10/13 00:39:52;;;;;;;15.63;8.13;;;;;;;;;;4993359;28;20355;-77
2021/10/13 00:42:19;;;;;;;22.50;8.10;;;;;;;;;;4993014;28;20385;-78
2021/10/13 00:44:46;;;;;;;15.30;7.30;;;;;;;;;;4991312;28;20671;-77
2021/10/13 00:47:13;;;;;;;15.27;6.93;;;;;;;;;;4991257;28;20319;-76
2021/10/13 00:49:40;;;;;;;15.93;6.57;;;;;;;;;;4986542;28;20217;-78
2021/10/13 00:52:09;;;;;;;17.97;6.80;;;;;;;;;;4996834;28;20680;-77
2021/10/13 00:54:36;;;;;;;18.80;7.27;;;;;;;;;;5006919;28;20316;-77
2021/10/13 00:57:04;;;;;;;18.03;7.23;;;;;;;;;;4998162;28;20212;-77
2021/10/13 00:59:31;;;;;;;12.40;6.43;;;;;;;;;;4990509;28;20211;-77
2021/10/13 01:02:01;;;;;;;16.47;7.27;;;;;;;;;;4988358;28;20307;-77
2021/10/13 01:04:35;;;;;;;15.00;7.20;;;;;;;;;;4985292;28;20675;-78
2021/10/13 01:07:05;;;;;;;14.43;7.00;;;;;;;;;;4988130;28;20309;-78
2021/10/13 01:09:37;;;;;;;18.73;7.20;;;;;;;;;;4991140;28;20236;-78
2021/10/13 01:12:10;;;;;;;15.93;7.57;;;;;;;;;;4993438;28;20208;-78
2021/10/13 01:14:41;;;;;;;14.67;7.23;;;;;;;;;;4985680;28;20289;-77
2021/10/13 01:17:14;;;;;;;18.80;7.43;;;;;;;;;;4982549;28;20216;-76
2021/10/13 01:19:49;;;;;;;14.97;7.10;;;;;;;;;;4983417;28;20229;-76
2021/10/13 01:22:22;;;;;;;17.33;7.07;;;;;;;;;;4989845;28;20243;-77
2021/10/13 01:24:57;;;;;;;16.60;6.67;;;;;;;;;;4986701;28;20201;-78
2021/10/13 01:27:46;;;;;;;18.10;7.37;;;;;;;;;;4990805;28;20255;-78
2021/10/13 01:30:14;;;;;;;14.23;6.80;;;;;;;;;;4989867;28;20327;-78
2021/10/13 01:32:42;;;;;;;17.40;7.27;;;;;;;;;;4989403;28;20291;-78
2021/10/13 01:35:10;;;;;;;16.73;6.67;;;;;;;;;;4992469;28;20300;-78
2021/10/13 01:37:40;;;;;;;18.23;7.20;;;;;;;;;;4990352;28;20279;-78
2021/10/13 01:40:09;;;;;;;22.53;7.73;;;;;;;;;;4990153;28;20320;-76
2021/10/13 01:42:36;;;;;;;16.17;6.13;;;;;;;;;;4988550;28;20573;-77
2021/10/13 01:45:05;;;;;;;18.27;7.30;;;;;;;;;;4988963;28;20335;-77
2021/10/13 01:47:33;;;;;;;13.10;6.50;;;;;;;;;;4991289;28;20278;-78
2021/10/13 01:50:02;;;;;;;15.77;7.07;;;;;;;;;;4992492;28;20670;-78
2021/10/13 01:52:29;;;;;;;18.50;7.60;;;;;;;;;;4992700;28;20287;-77
2021/10/13 01:54:59;;;;;;;18.57;8.07;;;;;;;;;;4999000;28;20240;-76
2021/10/13 01:57:27;;;;;;;19.40;7.43;;;;;;;;;;4994225;28;20243;-77
2021/10/13 01:59:56;;;;;;;18.17;7.87;;;;;;;;;;4992178;28;20316;-76
2021/10/13 02:02:27;;;;;;;16.30;7.30;;;;;;;;;;4991167;28;20209;-76
2021/10/13 02:04:55;;;;;;;18.53;7.57;;;;;;;;;;4992243;28;20204;-77
2021/10/13 02:07:23;;;;;;;20.27;7.47;;;;;;;;;;4991336;28;20217;-77
2021/10/13 02:09:52;;;;;;;18.03;8.10;;;;;;;;;;4991683;28;20303;-77
2021/10/13 02:12:19;;;;;;;17.60;7.00;;;;;;;;;;4990218;28;20243;-77
2021/10/13 02:14:48;;;;;;;16.93;6.90;;;;;;;;;;4990829;28;20599;-77
2021/10/13 02:17:16;;;;;;;18.93;7.07;;;;;;;;;;4992439;28;20252;-77
2021/10/13 02:19:46;;;;;;;16.77;6.47;;;;;;;;;;4991554;28;20209;-77
2021/10/13 02:22:13;;;;;;;12.13;6.80;;;;;;;;;;4988940;28;20213;-77
2021/10/13 02:24:42;;;;;;;14.87;7.30;;;;;;;;;;4990894;28;20200;-77
2021/10/13 02:27:11;;;;;;;13.83;6.57;;;;;;;;;;4992240;28;20263;-77
2021/10/13 02:29:39;;;;;;;13.40;7.67;;;;;;;;;;4990091;28;20717;-77
2021/10/13 02:32:07;;;;;;;13.33;7.67;;;;;;;;;;4986377;28;20218;-77
2021/10/13 02:34:35;;;;;;;14.23;7.63;;;;;;;;;;4979685;28;20201;-77
2021/10/13 02:37:03;;;;;;;17.47;7.50;;;;;;;;;;4988638;28;20632;-77
2021/10/13 02:39:31;;;;;;;11.40;6.90;;;;;;;;;;4989967;28;20208;-78
2021/10/13 02:41:58;;;;;;;17.27;7.50;;;;;;;;;;4990917;28;20206;-77
2021/10/13 02:44:25;;;;;;;16.77;8.13;;;;;;;;;;4979454;28;20645;-77
2021/10/13 02:46:55;;;;;;;15.07;8.43;;;;;;;;;;4993203;28;20259;-77
2021/10/13 02:49:26;;;;;;;15.43;7.53;;;;;;;;;;4992572;28;20325;-77
2021/10/13 02:51:56;;;;;;;16.77;8.50;;;;;;;;;;4992681;28;20317;-77
2021/10/13 02:54:26;;;;;;;20.90;8.67;;;;;;;;;;4992389;28;20216;-78
2021/10/13 02:56:54;;;;;;;16.23;7.73;;;;;;;;;;4985139;28;20248;-77
2021/10/13 02:59:26;;;;;;;17.87;7.83;;;;;;;;;;4990521;28;20295;-77
2021/10/13 03:01:56;;;;;;;15.10;7.50;;;;;;;;;;4988360;28;20237;-77
2021/10/13 03:04:27;;;;;;;14.60;7.43;;;;;;;;;;4990786;28;20300;-77
2021/10/13 03:06:56;;;;;;;16.00;8.20;;;;;;;;;;4989387;28;20208;-77
2021/10/13 03:09:28;;;;;;;17.47;7.97;;;;;;;;;;4990232;28;20239;-77
2021/10/13 03:11:56;;;;;;;15.90;7.67;;;;;;;;;;4987452;28;20315;-78
2021/10/13 03:14:24;;;;;;;18.37;8.47;;;;;;;;;;4990844;28;20244;-77
2021/10/13 03:16:52;;;;;;;22.23;8.17;;;;;;;;;;4990634;28;20292;-77
2021/10/13 03:19:19;;;;;;;13.47;7.43;;;;;;;;;;4981740;28;20252;-77
2021/10/13 03:21:47;;;;;;;19.93;8.23;;;;;;;;;;4990491;28;20315;-77
2021/10/13 03:24:16;;;;;;;19.77;8.13;;;;;;;;;;4987651;28;20632;-77
2021/10/13 03:26:48;;;;;;;19.20;9.03;;;;;;;;;;4990724;28;20582;-77
2021/10/13 03:29:15;;;;;;;20.03;8.53;;;;;;;;;;4989910;28;20279;-77
2021/10/13 03:31:42;;;;;;;21.93;9.70;;;;;;;;;;4979118;28;20328;-78
2021/10/13 03:34:10;;;;;;;17.83;8.90;;;;;;;;;;4984109;28;20326;-77
2021/10/13 03:36:41;;;;;;;25.20;9.97;;;;;;;;;;4973792;28;20321;-78
2021/10/13 03:39:08;;;;;;;23.47;10.80;;;;;;;;;;4972533;28;20205;-77
2021/10/13 03:41:35;;;;;;;23.93;11.93;;;;;;;;;;4980822;28;20674;-78
2021/10/13 03:44:04;;;;;;;26.37;12.07;;;;;;;;;;4970168;28;20217;-78
2021/10/13 03:46:32;;;;;;;31.17;10.93;;;;;;;;;;4970457;28;20215;-78
2021/10/13 03:48:59;;;;;;;29.10;11.90;;;;;;;;;;4974698;28;20353;-77
2021/10/13 03:51:26;;;;;;;31.50;12.70;;;;;;;;;;4977638;28;20233;-78
2021/10/13 03:53:54;;;;;;;29.07;12.87;;;;;;;;;;4978299;28;20201;-77
2021/10/13 03:56:21;;;;;;;27.23;12.13;;;;;;;;;;4979534;28;20308;-78
2021/10/13 03:58:48;;;;;;;34.73;12.43;;;;;;;;;;4981878;28;20288;-78
2021/10/13 04:01:17;;;;;;;28.97;12.77;;;;;;;;;;4971974;28;20308;-77
2021/10/13 04:03:44;;;;;;;30.63;13.33;;;;;;;;;;4982288;28;20233;-78
2021/10/13 04:06:11;;;;;;;28.57;12.73;;;;;;;;;;4976868;28;20223;-79
2021/10/13 04:08:38;;;;;;;28.23;12.07;;;;;;;;;;4976175;28;21662;-77
2021/10/13 04:11:06;;;;;;;24.17;11.03;;;;;;;;;;4990862;28;20312;-77
2021/10/13 04:13:33;;;;;;;28.63;12.90;;;;;;;;;;4988640;28;20213;-77
2021/10/13 04:16:00;;;;;;;22.60;11.47;;;;;;;;;;4981182;28;20985;-76
2021/10/13 04:18:29;;;;;;;25.57;12.43;;;;;;;;;;4981118;28;20336;-79
2021/10/13 04:20:56;;;;;;;33.57;12.83;;;;;;;;;;4981801;28;20221;-77
2021/10/13 04:23:23;;;;;;;25.50;12.07;;;;;;;;;;4986104;28;20296;-77
2021/10/13 04:25:50;;;;;;;31.43;12.87;;;;;;;;;;4980595;28;20208;-77
2021/10/13 04:28:18;;;;;;;34.60;14.27;;;;;;;;;;4972464;28;20324;-76
2021/10/13 04:30:46;;;;;;;39.30;13.97;;;;;;;;;;4976587;28;20232;-77
2021/10/13 04:33:13;;;;;;;35.57;13.77;;;;;;;;;;4977058;28;20288;-77
2021/10/13 04:35:42;;;;;;;24.00;10.57;;;;;;;;;;4973586;28;20300;-77
2021/10/13 04:38:09;;;;;;;31.23;12.40;;;;;;;;;;4970152;28;20206;-77
2021/10/13 04:40:36;;;;;;;44.17;14.10;;;;;;;;;;4972965;28;20220;-77
2021/10/13 04:43:03;;;;;;;34.83;13.27;;;;;;;;;;4978272;28;20644;-77
2021/10/13 04:45:31;;;;;;;37.03;13.37;;;;;;;;;;4975437;28;20197;-77
2021/10/13 04:47:58;;;;;;;36.47;15.33;;;;;;;;;;4976477;28;20743;-77
2021/10/13 04:50:25;;;;;;;32.27;13.27;;;;;;;;;;4977701;28;20391;-77
2021/10/13 04:52:53;;;;;;;38.73;13.97;;;;;;;;;;4973888;28;20236;-77
2021/10/13 04:55:21;;;;;;;32.87;13.77;;;;;;;;;;4972948;28;20215;-77
2021/10/13 04:57:48;;;;;;;34.90;13.87;;;;;;;;;;4974792;28;20292;-77
2021/10/13 05:00:15;;;;;;;29.70;13.43;;;;;;;;;;4987043;28;20308;-77
2021/10/13 05:02:42;;;;;;;33.47;13.13;;;;;;;;;;4988155;28;20711;-77
2021/10/13 05:05:10;;;;;;;36.77;13.87;;;;;;;;;;4985283;28;20292;-77
2021/10/13 05:07:37;;;;;;;36.17;13.63;;;;;;;;;;4990139;28;20301;-78
2021/10/13 05:10:06;;;;;;;40.20;14.67;;;;;;;;;;4986211;28;20314;-78
2021/10/13 05:12:34;;;;;;;31.07;13.03;;;;;;;;;;4984658;28;20294;-78
2021/10/13 05:15:01;;;;;;;36.10;13.13;;;;;;;;;;4989743;28;20283;-77
2021/10/13 05:17:28;;;;;;;34.10;13.03;;;;;;;;;;4978489;28;20287;-78
2021/10/13 05:19:55;;;;;;;36.30;12.83;;;;;;;;;;4969112;28;20729;-78
2021/10/13 05:22:22;;;;;;;41.20;14.20;;;;;;;;;;4973407;28;20536;-77
2021/10/13 05:24:50;;;;;;;35.07;13.10;;;;;;;;;;4970633;28;20296;-78
2021/10/13 05:27:18;;;;;;;34.30;13.30;;;;;;;;;;4973085;28;20215;-77
2021/10/13 05:29:45;;;;;;;37.23;13.93;;;;;;;;;;4972805;28;20243;-78
2021/10/13 05:32:12;;;;;;;36.23;13.47;;;;;;;;;;4975443;28;20219;-78
2021/10/13 05:34:40;;;;;;;33.57;13.03;;;;;;;;;;4975673;28;20682;-78
2021/10/13 05:37:07;;;;;;;35.23;13.43;;;;;;;;;;4976281;28;20651;-77
2021/10/13 05:39:34;;;;;;;28.10;11.33;;;;;;;;;;4975732;28;20217;-77
2021/10/13 05:42:01;;;;;;;33.80;12.90;;;;;;;;;;4975556;28;20223;-77
2021/10/13 05:44:30;;;;;;;34.77;13.87;;;;;;;;;;4976539;28;20212;-77
2021/10/13 05:46:57;;;;;;;34.53;13.90;;;;;;;;;;4972622;28;20335;-77
2021/10/13 05:49:24;;;;;;;36.53;13.60;;;;;;;;;;4968632;28;20598;-78
2021/10/13 05:51:51;;;;;;;35.97;14.33;;;;;;;;;;4976310;28;20242;-77
2021/10/13 05:54:18;;;;;;;37.33;13.97;;;;;;;;;;4976725;28;20910;-77
2021/10/13 05:56:49;;;;;;;34.57;13.63;;;;;;;;;;4974377;28;20288;-77
2021/10/13 05:59:16;;;;;;;40.17;14.17;;;;;;;;;;4974788;28;20267;-78
2021/10/13 06:01:45;;;;;;;33.33;12.87;;;;;;;;;;4975935;28;20863;-77
2021/10/13 06:04:12;;;;;;;34.60;12.80;;;;;;;;;;4973720;28;20236;-76
2021/10/13 06:06:39;;;;;;;28.57;12.13;;;;;;;;;;4976503;28;20293;-76
2021/10/13 06:09:06;;;;;;;29.57;13.07;;;;;;;;;;4979613;28;20231;-76
2021/10/13 06:11:34;;;;;;;35.07;12.70;;;;;;;;;;4976690;28;20234;-76
2021/10/13 06:14:01;;;;;;;37.93;13.37;;;;;;;;;;4972858;28;20596;-77
2021/10/13 06:16:28;;;;;;;37.30;15.37;;;;;;;;;;4975408;28;20377;-77
2021/10/13 06:18:57;;;;;;;37.07;17.33;;;;;;;;;;4975434;28;20287;-77
2021/10/13 06:21:42;;;;;;;38.10;17.33;;;;;;;;;;4976986;28;20226;-76
2021/10/13 06:24:09;;;;;;;33.67;12.40;;;;;;;;;;4974788;28;20288;-78
2021/10/13 06:26:36;;;;;;;36.60;13.27;;;;;;;;;;4973689;28;20347;-78
2021/10/13 06:29:04;;;;;;;31.10;12.50;;;;;;;;;;4974601;28;20239;-77
2021/10/13 06:31:31;;;;;;;32.47;13.00;;;;;;;;;;4976400;28;20237;-78
2021/10/13 06:34:00;;;;;;;30.40;12.00;;;;;;;;;;4975846;28;20360;-78
2021/10/13 06:36:27;;;;;;;33.23;12.53;;;;;;;;;;4974930;28;20215;-76
2021/10/13 06:38:54;;;;;;;34.43;13.03;;;;;;;;;;4981579;28;20640;-77
2021/10/13 06:41:21;;;;;;;37.73;13.43;;;;;;;;;;4979622;28;20315;-76
2021/10/13 06:43:48;;;;;;;36.87;14.07;;;;;;;;;;4976656;28;20303;-76
2021/10/13 06:46:16;;;;;;;31.33;12.97;;;;;;;;;;4980048;28;20208;-77
2021/10/13 06:48:43;;;;;;;46.97;13.60;;;;;;;;;;4979163;28;20223;-76
2021/10/13 06:51:11;;;;;;;33.70;12.93;;;;;;;;;;4978871;28;20224;-77
2021/10/13 06:53:38;;;;;;;33.73;12.73;;;;;;;;;;4978443;28;21016;-77
2021/10/13 06:56:06;;;;;;;39.07;13.77;;;;;;;;;;4977457;28;20654;-78
2021/10/13 06:58:33;;;;;;;32.77;12.53;;;;;;;;;;4978916;28;20205;-77
2021/10/13 07:01:00;;;;;;;30.27;11.57;;;;;;;;;;4979049;28;20229;-77
2021/10/13 07:03:27;;;;;;;31.27;12.50;;;;;;;;;;4977804;28;20204;-76
2021/10/13 07:05:54;;;;;;;31.80;11.80;;;;;;;;;;4977879;28;20348;-78
2021/10/13 07:08:23;;;;;;;21.33;10.57;;;;;;;;;;4978882;28;20202;-77
2021/10/13 07:10:50;;;;;;;27.73;10.90;;;;;;;;;;4977472;28;20220;-77
2021/10/13 07:13:17;;;;;;;25.97;10.93;;;;;;;;;;4978288;28;20616;-77
2021/10/13 07:15:45;;;;;;;23.60;10.20;;;;;;;;;;4979370;28;20296;-77
2021/10/13 07:18:12;;;;;;;23.53;10.67;;;;;;;;;;4978936;28;20209;-76
2021/10/13 07:20:39;;;;;;;23.67;9.90;;;;;;;;;;4974640;28;20405;-76
2021/10/13 07:23:06;;;;;;;21.67;10.83;;;;;;;;;;4975741;28;20232;-76
2021/10/13 07:25:35;;;;;;;20.47;10.47;;;;;;;;;;4973736;28;20288;-76
2021/10/13 07:28:02;;;;;;;19.20;8.07;;;;;;;;;;4975924;28;20357;-76
2021/10/13 07:30:31;;;;;;;18.43;8.80;;;;;;;;;;4977232;28;20260;-75
2021/10/13 07:32:58;;;;;;;15.40;7.27;;;;;;;;;;4978285;28;20670;-76
2021/10/13 07:35:27;;;;;;;15.53;7.80;;;;;;;;;;4975443;28;20284;-76
2021/10/13 07:37:56;;;;;;;14.23;6.80;;;;;;;;;;5038076;23;20264;-76
2021/10/13 07:40:23;;;;;;;17.37;7.60;;;;;;;;;;4979692;28;20324;-76
2021/10/13 07:42:53;;;;;;;16.93;7.93;;;;;;;;;;4977548;28;20209;-76
2021/10/13 07:45:20;;;;;;;17.67;7.20;;;;;;;;;;4976837;28;20236;-76
2021/10/13 07:47:48;;;;;;;16.93;7.97;;;;;;;;;;4980637;28;20276;-75
2021/10/13 07:50:16;;;;;;;14.53;7.47;;;;;;;;;;4976269;28;20230;-76
2021/10/13 07:52:43;;;;;;;17.73;8.30;;;;;;;;;;4972752;28;20291;-76
2021/10/13 07:55:10;;;;;;;15.97;7.87;;;;;;;;;;4974843;28;20353;-76
2021/10/13 07:57:38;;;;;;;15.00;7.67;;;;;;;;;;4971334;28;20295;-76
2021/10/13 08:00:07;;;;;;;13.03;7.20;;;;;;;;;;4979311;28;20248;-76
2021/10/13 08:02:34;;;;;;;19.13;9.37;;;;;;;;;;4978380;28;20209;-76
2021/10/13 08:05:02;;;;;;;18.20;8.30;;;;;;;;;;4976079;28;20770;-75
2021/10/13 08:07:29;;;;;;;17.70;8.50;;;;;;;;;;4978511;28;20897;-76
2021/10/13 08:09:56;;;;;;;20.00;8.73;;;;;;;;;;4978098;28;20336;-76
2021/10/13 08:12:23;;;;;;;19.77;9.07;;;;;;;;;;4990526;28;20320;-76
2021/10/13 08:14:50;;;;;;;20.43;9.23;;;;;;;;;;4988241;28;20296;-76
2021/10/13 08:17:19;;;;;;;17.33;8.53;;;;;;;;;;4978306;28;20340;-77
2021/10/13 08:19:46;;;;;;;21.40;9.20;;;;;;;;;;4977522;28;20209;-76
2021/10/13 08:22:13;;;;;;;20.67;8.90;;;;;;;;;;4975460;28;20545;-76
2021/10/13 08:24:41;;;;;;;22.63;9.60;;;;;;;;;;4978605;28;20205;-77
2021/10/13 08:27:08;;;;;;;25.17;9.67;;;;;;;;;;4979461;28;20267;-77
2021/10/13 08:29:35;;;;;;;22.90;10.13;;;;;;;;;;4977207;28;20205;-77
2021/10/13 08:32:02;;;;;;;24.97;10.17;;;;;;;;;;4984006;28;20284;-76
2021/10/13 08:34:31;;;;;;;22.57;10.57;;;;;;;;;;4977392;28;20296;-76
2021/10/13 08:36:58;;;;;;;24.87;10.20;;;;;;;;;;4978128;28;20324;-76
2021/10/13 08:39:26;;;;;;;25.17;10.50;;;;;;;;;;4975682;28;20241;-76
2021/10/13 08:41:53;;;;;;;20.27;9.20;;;;;;;;;;4975461;28;20638;-75
2021/10/13 08:44:21;;;;;;;22.37;9.73;;;;;;;;;;4978868;28;20276;-76
2021/10/13 08:46:48;;;;;;;19.43;9.17;;;;;;;;;;4975780;28;20210;-76
2021/10/13 08:49:15;;;;;;;23.43;9.37;;;;;;;;;;4975439;28;20299;-75
2021/10/13 08:51:43;;;;;;;21.73;7.53;;;;;;;;;;4977736;28;20357;-76
2021/10/13 08:54:13;;;;;;;18.23;7.97;;;;;;;;;;4975342;28;20209;-74
2021/10/13 08:56:41;;;;;;;17.73;8.37;;;;;;;;;;4977646;28;20580;-76
2021/10/13 08:59:08;;;;;;;18.87;8.57;;;;;;;;;;4972370;28;20332;-76
2021/10/13 09:01:35;;;;;;;22.13;8.60;;;;;;;;;;4978128;28;20664;-76
2021/10/13 09:04:04;;;;;;;20.93;8.93;;;;;;;;;;4975279;28;20381;-76
2021/10/13 09:06:33;;;;;;;20.03;9.03;;;;;;;;;;4978987;28;20294;-76
2021/10/13 09:09:03;;;;;;;18.03;8.53;;;;;;;;;;4976630;28;20216;-76
2021/10/13 09:11:32;;;;;;;17.97;8.17;;;;;;;;;;4976512;28;20753;-75
2021/10/13 09:14:12;;;;;;;17.10;8.20;;;;;;;;;;4974453;28;20704;-75
2021/10/13 09:16:55;;;;;;;16.63;8.13;;;;;;;;;;4976938;28;20236;-75
2021/10/13 09:19:23;;;;;;;17.00;7.97;;;;;;;;;;4969471;28;20678;-75
2021/10/13 09:21:51;;;;;;;17.97;7.70;;;;;;;;;;4973188;28;20326;-75
2021/10/13 09:24:20;;;;;;;13.33;7.03;;;;;;;;;;4974617;28;20889;-76
2021/10/13 09:26:47;;;;;;;13.87;6.93;;;;;;;;;;4975753;28;20978;-76
2021/10/13 09:29:15;;;;;;;18.90;7.03;;;;;;;;;;4980269;28;20236;-77
2021/10/13 09:31:42;;;;;;;13.03;6.30;;;;;;;;;;4983229;28;20742;-77
2021/10/13 09:34:11;;;;;;;14.17;6.60;;;;;;;;;;4981016;28;20347;-77
2021/10/13 09:36:39;;;;;;;16.03;6.63;;;;;;;;;;4984839;28;20265;-77
2021/10/13 09:39:07;;;;;;;13.93;6.10;;;;;;;;;;4977597;28;20620;-76
2021/10/13 09:41:55;;;;;;;10.80;5.40;;;;;;;;;;4975879;28;20225;-76
2021/10/13 09:44:23;;;;;;;12.70;5.57;;;;;;;;;;4975081;28;20219;-76
2021/10/13 09:46:50;;;;;;;11.83;4.93;;;;;;;;;;4976614;28;20843;-76
2021/10/13 09:49:27;;;;;;;12.60;4.93;;;;;;;;;;4974375;28;20348;-75
2021/10/13 09:52:00;;;;;;;8.27;4.60;;;;;;;;;;4979555;28;20224;-77
2021/10/13 09:54:27;;;;;;;8.20;4.23;;;;;;;;;;4973897;28;20644;-76
2021/10/13 09:56:56;;;;;;;8.87;4.37;;;;;;;;;;4974273;28;20299;-76
2021/10/13 09:59:23;;;;;;;6.13;3.77;;;;;;;;;;4978262;28;20616;-76
2021/10/13 10:01:51;;;;;;;7.30;4.00;;;;;;;;;;4978192;28;20307;-76
2021/10/13 10:04:20;;;;;;;7.23;3.83;;;;;;;;;;4977728;28;20426;-76
2021/10/13 10:06:50;;;;;;;7.80;4.23;;;;;;;;;;4974699;28;20217;-76
2021/10/13 10:09:18;;;;;;;8.37;4.10;;;;;;;;;;4977151;28;20304;-76
2021/10/13 10:11:47;;;;;;;10.10;4.13;;;;;;;;;;4978913;28;20645;-76
2021/10/13 10:14:32;;;;;;;10.07;4.53;;;;;;;;;;4979233;28;20216;-76
2021/10/13 10:17:01;;;;;;;8.67;4.03;;;;;;;;;;4981189;28;20626;-76
2021/10/13 10:19:29;;;;;;;9.60;3.87;;;;;;;;;;4985746;28;20316;-77
2021/10/13 10:21:57;;;;;;;7.83;4.07;;;;;;;;;;4980676;28;20227;-77
2021/10/13 10:24:26;;;;;;;10.67;4.90;;;;;;;;;;4979324;28;20303;-77
2021/10/13 10:26:54;;;;;;;8.63;4.37;;;;;;;;;;4979234;28;20288;-77
2021/10/13 10:29:21;;;;;;;6.87;3.80;;;;;;;;;;4979596;28;20205;-76
2021/10/13 10:31:58;;;;;;;8.70;4.60;;;;;;;;;;4979490;28;20327;-77
2021/10/13 10:34:27;;;;;;;8.37;4.07;;;;;;;;;;4984822;28;20287;-77
2021/10/13 10:37:14;;;;;;;7.67;4.00;;;;;;;;;;4988076;28;20272;-78
2021/10/13 10:40:02;;;;;;;7.03;3.43;;;;;;;;;;4981064;28;20643;-78
2021/10/13 10:42:47;;;;;;;10.00;4.23;;;;;;;;;;4990628;28;20216;-78
2021/10/13 10:45:17;;;;;;;8.47;4.30;;;;;;;;;;4986839;28;20228;-78
2021/10/13 10:47:51;;;;;;;9.40;4.03;;;;;;;;;;4993557;28;20216;-76
2021/10/13 10:50:30;;;;;;;9.17;5.20;;;;;;;;;;4997573;28;20310;-76
2021/10/13 10:53:15;;;;;;;12.47;5.43;;;;;;;;;;4988660;28;20292;-77
2021/10/13 10:55:43;;;;;;;9.33;5.00;;;;;;;;;;4991259;28;20328;-77
2021/10/13 10:58:15;;;;;;;12.97;5.50;;;;;;;;;;4989433;28;20232;-77
2021/10/13 11:00:43;;;;;;;11.83;5.93;;;;;;;;;;4996611;28;20225;-78
2021/10/13 11:03:25;;;;;;;17.73;6.20;;;;;;;;;;4997181;28;20204;-77
2021/10/13 11:05:54;;;;;;;15.20;6.40;;;;;;;;;;4993672;28;20213;-76
2021/10/13 11:08:22;;;;;;;12.90;5.53;;;;;;;;;;4991832;28;20229;-76
2021/10/13 11:10:49;;;;;;;15.67;6.60;;;;;;;;;;4997714;28;20320;-76
2021/10/13 11:13:24;;;;;;;17.83;7.07;;;;;;;;;;5008431;28;20213;-78
2021/10/13 11:15:51;;;;;;;16.40;6.87;;;;;;;;;;4997518;28;20204;-77
2021/10/13 11:18:18;;;;;;;14.57;7.50;;;;;;;;;;4990912;28;20689;-76
2021/10/13 11:20:49;;;;;;;14.77;6.93;;;;;;;;;;4989248;28;20320;-76
2021/10/13 11:23:18;;;;;;;16.47;7.20;;;;;;;;;;4990453;28;20240;-76
2021/10/13 11:25:46;;;;;;;18.60;7.57;;;;;;;;;;4978235;28;20208;-77
2021/10/13 11:28:14;;;;;;;17.17;6.80;;;;;;;;;;4998900;28;20216;-77
2021/10/13 11:30:42;;;;;;;15.47;7.40;;;;;;;;;;4987476;28;20225;-76
2021/10/13 11:33:10;;;;;;;20.70;7.50;;;;;;;;;;4977794;28;20320;-76
2021/10/13 11:35:37;;;;;;;17.70;6.27;;;;;;;;;;4983294;28;20647;-76
2021/10/13 11:38:05;;;;;;;14.17;7.03;;;;;;;;;;4988204;28;20634;-76
2021/10/13 11:40:35;;;;;;;13.30;6.10;;;;;;;;;;4985705;28;20698;-76
2021/10/13 11:43:08;;;;;;;14.17;7.10;;;;;;;;;;4982637;28;20236;-77
2021/10/13 11:45:35;;;;;;;20.13;7.07;;;;;;;;;;4987965;28;20220;-76
2021/10/13 11:48:02;;;;;;;13.13;5.67;;;;;;;;;;4982137;28;20841;-76
2021/10/13 11:50:32;;;;;;;11.00;5.93;;;;;;;;;;4981874;28;20268;-76
2021/10/13 11:53:03;;;;;;;11.73;5.67;;;;;;;;;;4986089;28;20580;-76
2021/10/13 11:55:33;;;;;;;11.60;5.03;;;;;;;;;;4985900;28;20201;-78
2021/10/13 11:58:03;;;;;;;12.87;5.90;;;;;;;;;;4987138;28;20335;-81
2021/10/13 12:00:31;;;;;;;11.80;5.03;;;;;;;;;;4983068;28;20241;-79
2021/10/13 12:03:03;;;;;;;15.30;5.23;;;;;;;;;;4988515;28;20296;-79
2021/10/13 12:05:31;;;;;;;13.10;5.57;;;;;;;;;;4988464;28;20284;-78
2021/10/13 12:08:02;;;;;;;13.17;4.90;;;;;;;;;;4992252;28;20209;-78
2021/10/13 12:10:37;;;;;;;11.70;5.47;;;;;;;;;;4986956;28;20225;-78
2021/10/13 12:13:06;;;;;;;12.37;5.20;;;;;;;;;;4988111;28;20236;-78
2021/10/13 12:15:34;;;;;;;12.83;5.10;;;;;;;;;;4990688;28;20296;-78
2021/10/13 12:18:11;;;;;;;12.80;5.10;;;;;;;;;;4989254;28;20300;-79
2021/10/13 12:20:38;;;;;;;13.70;4.70;;;;;;;;;;4988410;28;20315;-78
2021/10/13 12:23:15;;;;;;;8.43;4.10;;;;;;;;;;4991246;28;20208;-78
2021/10/13 12:25:43;;;;;;;10.00;4.30;;;;;;;;;;4987991;28;20255;-78
2021/10/13 12:28:15;;;;;;;8.73;4.67;;;;;;;;;;4984780;28;20236;-78
2021/10/13 12:30:43;;;;;;;15.57;5.10;;;;;;;;;;4986257;28;20229;-78
2021/10/13 12:33:15;;;;;;;14.93;4.77;;;;;;;;;;4973348;28;20205;-77
2021/10/13 12:35:42;;;;;;;10.63;4.70;;;;;;;;;;4984671;28;20239;-78
2021/10/13 12:38:13;;;;;;;10.13;4.77;;;;;;;;;;4991208;28;20296;-77
2021/10/13 12:40:40;;;;;;;13.10;5.17;;;;;;;;;;4992398;28;20315;-77
2021/10/13 12:43:28;;;;;;;17.23;6.03;;;;;;;;;;4992748;28;20286;-78
2021/10/13 12:46:17;;;;;;;13.70;5.93;;;;;;;;;;4998290;28;20233;-78
2021/10/13 12:48:44;;;;;;;14.17;5.77;;;;;;;;;;4998769;28;20216;-78
2021/10/13 12:51:15;;;;;;;12.80;5.37;;;;;;;;;;4995785;28;20263;-76
2021/10/13 12:53:42;;;;;;;16.83;6.53;;;;;;;;;;4986730;28;20236;-77
2021/10/13 12:56:09;;;;;;;16.40;6.27;;;;;;;;;;4993876;28;20201;-77
2021/10/13 12:58:36;;;;;;;17.20;6.67;;;;;;;;;;4991964;28;20684;-76
2021/10/13 13:01:06;;;;;;;19.47;7.03;;;;;;;;;;4995534;28;20259;-77
2021/10/13 13:03:33;;;;;;;17.67;6.70;;;;;;;;;;4995833;28;20691;-77
2021/10/13 13:06:00;;;;;;;16.87;7.13;;;;;;;;;;4989356;28;20229;-76
2021/10/13 13:08:27;;;;;;;16.90;6.47;;;;;;;;;;4990992;28;20632;-79
2021/10/13 13:10:55;;;;;;;17.30;6.87;;;;;;;;;;4989491;28;20319;-77
2021/10/13 13:13:22;;;;;;;19.83;7.20;;;;;;;;;;4986622;28;20295;-81
2021/10/13 13:15:49;;;;;;;17.17;7.00;;;;;;;;;;4987091;28;20694;-77
2021/10/13 13:18:18;;;;;;;24.33;8.20;;;;;;;;;;4987232;28;20337;-76
2021/10/13 13:20:45;;;;;;;17.23;6.93;;;;;;;;;;4982604;28;20230;-78
2021/10/13 13:23:12;;;;;;;21.73;7.60;;;;;;;;;;4995251;28;20247;-76
2021/10/13 13:25:41;;;;;;;22.80;7.70;;;;;;;;;;4989162;28;20209;-77
2021/10/13 13:28:08;;;;;;;21.57;7.50;;;;;;;;;;4988009;28;20228;-78
2021/10/13 13:30:36;;;;;;;15.17;7.03;;;;;;;;;;4988344;28;20601;-77
2021/10/13 13:33:03;;;;;;;20.47;9.30;;;;;;;;;;4983648;28;20766;-78
2021/10/13 13:35:31;;;;;;;21.30;9.83;;;;;;;;;;4985962;28;20236;-77
2021/10/13 13:37:59;;;;;;;32.13;15.40;;;;;;;;;;4984218;28;20666;-78
2021/10/13 13:40:27;;;;;;;22.83;10.63;;;;;;;;;;4978971;28;20617;-78
2021/10/13 13:42:54;;;;;;;24.37;9.70;;;;;;;;;;4981289;28;20284;-77
2021/10/13 13:45:21;;;;;;;25.23;9.53;;;;;;;;;;4987247;28;20205;-77
2021/10/13 13:47:48;;;;;;;26.33;10.10;;;;;;;;;;4981307;28;20209;-78
2021/10/13 13:50:15;;;;;;;23.90;10.27;;;;;;;;;;4987216;28;20248;-77
2021/10/13 13:52:44;;;;;;;24.90;9.50;;;;;;;;;;4986899;28;20698;-77
2021/10/13 13:55:11;;;;;;;23.37;8.87;;;;;;;;;;4972737;28;20268;-76
2021/10/13 13:57:38;;;;;;;24.70;9.43;;;;;;;;;;4972413;28;20219;-77
2021/10/13 14:00:07;;;;;;;21.23;8.77;;;;;;;;;;4972730;28;20233;-76
2021/10/13 14:02:34;;;;;;;23.50;9.97;;;;;;;;;;4970534;28;20344;-77
2021/10/13 14:05:02;;;;;;;17.93;7.70;;;;;;;;;;4970693;28;20209;-79
2021/10/13 14:07:30;;;;;;;27.67;8.90;;;;;;;;;;4970955;28;20213;-78
2021/10/13 14:09:59;;;;;;;23.47;9.33;;;;;;;;;;4977576;28;20677;-79
2021/10/13 14:12:26;;;;;;;20.77;8.20;;;;;;;;;;4973710;28;20252;-80
2021/10/13 14:14:53;;;;;;;18.20;7.20;;;;;;;;;;4976612;28;20565;-79
2021/10/13 14:17:20;;;;;;;16.93;7.13;;;;;;;;;;4979030;28;20555;-79
2021/10/13 14:19:47;;;;;;;20.37;8.63;;;;;;;;;;4974231;28;20211;-79
2021/10/13 14:22:15;;;;;;;23.67;8.10;;;;;;;;;;4976018;28;20762;-77
2021/10/13 14:24:42;;;;;;;18.80;7.90;;;;;;;;;;4978511;28;20292;-77
2021/10/13 14:27:10;;;;;;;21.87;9.17;;;;;;;;;;4974343;28;20300;-76
2021/10/13 14:29:37;;;;;;;17.70;8.53;;;;;;;;;;4967399;28;20288;-77
2021/10/13 14:32:05;;;;;;;16.33;7.90;;;;;;;;;;4973014;28;20339;-78
2021/10/13 14:34:37;;;;;;;19.20;8.13;;;;;;;;;;4986812;28;20754;-78